createdAt,value
2023-03-17T00:01:54.824Z,99.42
2023-03-17T00:04:26.882Z,99.06
2023-03-17T00:06:55.133Z,99.51
2023-03-17T00:09:22.710Z,99.38
2023-03-17T00:11:50.434Z,100.00
2023-03-17T00:14:18.258Z,99.79
2023-03-17T00:16:50.060Z,100.00
2023-03-17T00:19:21.826Z,100.00
2023-03-17T00:21:49.856Z,100.00
2023-03-17T00:24:17.275Z,100.00
2023-03-17T00:26:44.129Z,100.00
2023-03-17T00:29:10.923Z,100.00
2023-03-17T00:31:38.207Z,100.00
2023-03-17T00:34:05.876Z,100.00
2023-03-17T00:36:33.744Z,100.00
2023-03-17T00:39:03.833Z,100.00
2023-03-17T00:41:30.607Z,100.00
2023-03-17T00:43:57.684Z,100.00
2023-03-17T00:46:36.112Z,100.00
2023-03-17T00:49:18.737Z,100.00
2023-03-17T00:51:46.377Z,100.00
2023-03-17T00:54:15.580Z,100.00
2023-03-17T00:56:44.305Z,100.00
2023-03-17T00:59:29.802Z,100.00
2023-03-17T01:01:57.044Z,100.00
2023-03-17T01:04:24.230Z,100.00
2023-03-17T01:06:52.293Z,100.00
2023-03-17T01:09:20.439Z,100.00
2023-03-17T01:11:48.250Z,100.00
2023-03-17T01:14:15.323Z,100.00
2023-03-17T01:16:42.170Z,100.00
2023-03-17T01:19:11.998Z,100.00
2023-03-17T01:21:38.899Z,100.00
2023-03-17T01:24:06.094Z,100.00
2023-03-17T01:26:32.827Z,100.00
2023-03-17T01:28:59.910Z,100.00
2023-03-17T01:31:26.668Z,100.00
2023-03-17T01:33:54.041Z,100.00
2023-03-17T01:36:21.917Z,100.00
2023-03-17T01:38:50.805Z,100.00
2023-03-17T01:41:20.950Z,100.00
2023-03-17T01:43:47.890Z,100.00
2023-03-17T01:46:30.218Z,100.00
2023-03-17T01:48:59.732Z,100.00
2023-03-17T01:51:46.432Z,100.00
2023-03-17T01:54:22.436Z,100.00
2023-03-17T01:56:52.277Z,100.00
2023-03-17T01:59:23.967Z,100.00
2023-03-17T02:01:54.655Z,100.00
2023-03-17T02:04:22.032Z,100.00
2023-03-17T02:06:57.856Z,100.00
2023-03-17T02:09:25.566Z,100.00
2023-03-17T02:11:52.253Z,100.00
2023-03-17T02:14:19.020Z,100.00
2023-03-17T02:16:46.063Z,100.00
2023-03-17T02:19:15.639Z,100.00
2023-03-17T02:21:45.290Z,100.00
2023-03-17T02:24:23.726Z,100.00
2023-03-17T02:26:54.026Z,100.00
2023-03-17T02:29:23.187Z,100.00
2023-03-17T02:31:50.634Z,100.00
2023-03-17T02:34:17.384Z,100.00
2023-03-17T02:36:44.380Z,100.00
2023-03-17T02:39:11.185Z,100.00
2023-03-17T02:41:38.053Z,100.00
2023-03-17T02:44:04.929Z,100.00
2023-03-17T02:46:31.702Z,100.00
2023-03-17T02:49:00.727Z,100.00
2023-03-17T02:51:28.213Z,100.00
2023-03-17T02:53:54.879Z,100.00
2023-03-17T02:56:21.554Z,100.00
2023-03-17T02:58:48.268Z,100.00
2023-03-17T03:01:15.696Z,100.00
2023-03-17T03:03:42.394Z,100.00
2023-03-17T03:06:08.997Z,100.00
2023-03-17T03:08:36.498Z,100.00
2023-03-17T03:11:04.068Z,100.00
2023-03-17T03:13:30.786Z,100.00
2023-03-17T03:15:57.568Z,100.00
2023-03-17T03:18:24.550Z,100.00
2023-03-17T03:20:51.509Z,100.00
2023-03-17T03:23:18.752Z,100.00
2023-03-17T03:25:45.828Z,100.00
2023-03-17T03:28:12.548Z,100.00
2023-03-17T03:30:39.473Z,100.00
2023-03-17T03:33:06.669Z,100.00
2023-03-17T03:35:34.495Z,100.00
2023-03-17T03:38:01.596Z,100.00
2023-03-17T03:40:28.593Z,100.00
2023-03-17T03:42:55.445Z,100.00
2023-03-17T03:45:22.084Z,100.00
2023-03-17T03:47:48.785Z,100.00
2023-03-17T03:50:15.630Z,100.00
2023-03-17T03:52:42.289Z,100.00
2023-03-17T03:55:09.720Z,100.00
2023-03-17T03:57:36.492Z,100.00
2023-03-17T04:00:05.152Z,100.00
2023-03-17T04:02:38.767Z,100.00
2023-03-17T04:05:07.275Z,100.00
2023-03-17T04:07:34.070Z,100.00
2023-03-17T04:10:00.814Z,100.00
2023-03-17T04:12:27.710Z,100.00
2023-03-17T04:14:54.395Z,100.00
2023-03-17T04:17:21.051Z,100.00
2023-03-17T04:19:47.771Z,100.00
2023-03-17T04:22:14.423Z,100.00
2023-03-17T04:24:41.114Z,100.00
2023-03-17T04:27:08.080Z,100.00
2023-03-17T04:29:35.317Z,100.00
2023-03-17T04:32:03.733Z,100.00
2023-03-17T04:34:30.752Z,100.00
2023-03-17T04:36:57.522Z,100.00
2023-03-17T04:39:24.229Z,100.00
2023-03-17T04:41:51.107Z,100.00
2023-03-17T04:44:17.761Z,100.00
2023-03-17T04:46:44.436Z,100.00
2023-03-17T04:49:11.103Z,100.00
2023-03-17T04:51:37.751Z,100.00
2023-03-17T04:54:05.523Z,100.00
2023-03-17T04:56:32.268Z,100.00
2023-03-17T04:58:59.184Z,100.00
2023-03-17T05:01:26.423Z,100.00
2023-03-17T05:03:53.564Z,100.00
2023-03-17T05:06:20.338Z,100.00
2023-03-17T05:08:47.021Z,100.00
2023-03-17T05:11:14.293Z,100.00
2023-03-17T05:13:41.080Z,100.00
2023-03-17T05:16:09.301Z,100.00
2023-03-17T05:18:37.173Z,100.00
2023-03-17T05:21:06.303Z,100.00
2023-03-17T05:23:33.791Z,100.00
2023-03-17T05:26:00.701Z,100.00
2023-03-17T05:28:27.718Z,100.00
2023-03-17T05:30:54.991Z,100.00
2023-03-17T05:33:21.900Z,100.00
2023-03-17T05:35:48.762Z,100.00
2023-03-17T05:38:18.879Z,100.00
2023-03-17T05:40:45.743Z,100.00
2023-03-17T05:43:12.525Z,100.00
2023-03-17T05:45:39.303Z,100.00
2023-03-17T05:48:06.324Z,100.00
2023-03-17T05:50:33.458Z,100.00
2023-03-17T05:53:00.883Z,100.00
2023-03-17T05:55:27.631Z,100.00
2023-03-17T05:57:54.354Z,100.00
2023-03-17T06:00:21.747Z,100.00
2023-03-17T06:02:48.689Z,100.00
2023-03-17T06:05:15.673Z,100.00
2023-03-17T06:07:53.001Z,100.00
2023-03-17T06:10:23.796Z,100.00
2023-03-17T06:12:50.526Z,100.00
2023-03-17T06:15:17.478Z,100.00
2023-03-17T06:17:44.524Z,100.00
2023-03-17T06:20:11.964Z,100.00
2023-03-17T06:22:42.354Z,100.00
2023-03-17T06:25:15.706Z,100.00
2023-03-17T06:27:42.713Z,100.00
2023-03-17T06:30:10.155Z,100.00
2023-03-17T06:32:36.928Z,100.00
2023-03-17T06:35:05.358Z,100.00
2023-03-17T06:37:32.040Z,100.00
2023-03-17T06:40:00.885Z,100.00
2023-03-17T06:42:28.190Z,100.00
2023-03-17T06:44:55.673Z,100.00
2023-03-17T06:47:24.803Z,100.00
2023-03-17T06:49:53.562Z,100.00
2023-03-17T06:52:20.320Z,100.00
2023-03-17T06:54:47.056Z,99.00
2023-03-17T06:57:13.676Z,100.00
2023-03-17T06:59:40.464Z,100.00
2023-03-17T07:02:07.324Z,100.00
2023-03-17T07:04:35.334Z,100.00
2023-03-17T07:07:03.203Z,100.00
2023-03-17T07:09:29.817Z,100.00
2023-03-17T07:11:56.487Z,100.00
2023-03-17T07:14:23.206Z,100.00
2023-03-17T07:16:50.233Z,100.00
2023-03-17T07:19:17.067Z,100.00
2023-03-17T07:21:45.973Z,99.29
2023-03-17T07:24:13.513Z,97.97
2023-03-17T07:26:40.175Z,96.91
2023-03-17T07:29:08.335Z,95.63
2023-03-17T07:31:35.266Z,93.94
2023-03-17T07:34:02.139Z,93.38
2023-03-17T07:36:28.746Z,91.82
2023-03-17T07:38:55.524Z,92.43
2023-03-17T07:41:22.670Z,94.02
2023-03-17T07:43:49.343Z,93.97
2023-03-17T07:46:16.724Z,93.20
2023-03-17T07:48:44.067Z,92.22
2023-03-17T07:51:16.402Z,90.91
2023-03-17T07:53:43.165Z,90.41
2023-03-17T07:56:09.875Z,91.40
2023-03-17T07:58:36.899Z,93.14
2023-03-17T08:01:05.044Z,92.42
2023-03-17T08:03:31.846Z,91.67
2023-03-17T08:05:59.461Z,90.64
2023-03-17T08:08:28.584Z,91.32
2023-03-17T08:11:03.754Z,91.05
2023-03-17T08:13:34.057Z,91.27
2023-03-17T08:16:01.665Z,91.56
2023-03-17T08:18:28.437Z,93.13
2023-03-17T08:20:55.394Z,92.67
2023-03-17T08:23:22.606Z,92.45
2023-03-17T08:25:49.384Z,93.56
2023-03-17T08:28:16.526Z,93.90
2023-03-17T08:30:44.789Z,92.10
2023-03-17T08:33:11.614Z,92.71
2023-03-17T08:35:41.633Z,91.77
2023-03-17T08:38:09.017Z,91.81
2023-03-17T08:40:36.674Z,91.84
2023-03-17T08:43:03.407Z,91.94
2023-03-17T08:45:30.509Z,92.30
2023-03-17T08:47:57.784Z,92.52
2023-03-17T08:50:25.286Z,92.09
2023-03-17T08:52:52.883Z,92.15
2023-03-17T08:55:20.089Z,91.36
2023-03-17T08:57:46.941Z,91.75
2023-03-17T09:00:20.340Z,92.37
2023-03-17T09:02:48.354Z,93.92
2023-03-17T09:05:16.643Z,93.54
2023-03-17T09:07:43.768Z,92.17
2023-03-17T09:10:11.794Z,92.22
2023-03-17T09:12:38.818Z,88.44
2023-03-17T09:15:07.698Z,83.88
2023-03-17T09:17:34.782Z,84.42
2023-03-17T09:20:01.491Z,82.81
2023-03-17T09:22:28.141Z,82.94
2023-03-17T09:24:54.806Z,81.45
2023-03-17T09:27:21.463Z,81.20
2023-03-17T09:29:48.097Z,79.77
2023-03-17T09:32:15.887Z,79.75
2023-03-17T09:34:42.993Z,78.66
2023-03-17T09:37:10.260Z,79.34
2023-03-17T09:39:36.953Z,78.81
2023-03-17T09:42:37.174Z,76.71
2023-03-17T09:45:16.301Z,77.65
2023-03-17T09:48:00.607Z,77.76
2023-03-17T09:50:33.354Z,77.98
2023-03-17T09:53:03.828Z,77.81
2023-03-17T09:55:34.230Z,75.73
2023-03-17T09:58:01.116Z,73.98
2023-03-17T10:00:29.855Z,71.66
2023-03-17T10:02:58.230Z,73.28
2023-03-17T10:05:28.122Z,72.09
2023-03-17T10:08:31.345Z,72.98
2023-03-17T10:11:09.476Z,71.53
2023-03-17T10:13:55.828Z,71.49
2023-03-17T10:16:34.520Z,72.95
2023-03-17T10:19:46.104Z,71.99
2023-03-17T10:22:31.151Z,69.64
2023-03-17T10:25:04.324Z,68.62
2023-03-17T10:27:36.322Z,68.59
2023-03-17T10:30:03.932Z,69.02
2023-03-17T10:32:34.137Z,68.11
2023-03-17T10:35:01.397Z,67.70
2023-03-17T10:37:29.686Z,67.85
2023-03-17T10:39:57.462Z,67.53
2023-03-17T10:42:26.739Z,68.11
2023-03-17T10:44:57.802Z,67.30
2023-03-17T10:47:34.607Z,64.81
2023-03-17T10:50:20.408Z,63.01
2023-03-17T10:52:49.174Z,62.58
2023-03-17T10:55:20.446Z,63.11
2023-03-17T10:57:55.297Z,61.68
2023-03-17T11:00:23.203Z,58.95
2023-03-17T11:02:58.544Z,60.20
2023-03-17T11:05:29.805Z,61.13
2023-03-17T11:08:18.094Z,59.30
2023-03-17T11:10:44.932Z,57.65
2023-03-17T11:13:17.167Z,57.95
2023-03-17T11:15:52.820Z,60.56
2023-03-17T11:18:33.418Z,58.68
2023-03-17T11:21:11.152Z,56.54
2023-03-17T11:23:58.668Z,57.79
2023-03-17T11:27:06.952Z,57.86
2023-03-17T11:29:42.218Z,57.50
2023-03-17T11:32:28.780Z,57.15
2023-03-17T11:35:14.201Z,57.82
2023-03-17T11:38:18.903Z,57.12
2023-03-17T11:41:04.919Z,58.14
2023-03-17T11:43:45.397Z,59.38
2023-03-17T11:46:24.117Z,59.34
2023-03-17T11:49:18.859Z,59.19
2023-03-17T11:52:05.585Z,59.08
2023-03-17T11:55:04.445Z,57.34
2023-03-17T11:57:58.411Z,57.70
2023-03-17T12:00:33.816Z,58.79
2023-03-17T12:03:00.947Z,58.14
2023-03-17T12:05:30.127Z,58.54
2023-03-17T12:08:06.185Z,58.85
2023-03-17T12:10:41.261Z,58.05
2023-03-17T12:13:23.685Z,56.85
2023-03-17T12:15:55.940Z,58.14
2023-03-17T12:18:43.142Z,57.29
2023-03-17T12:21:20.745Z,56.28
2023-03-17T12:23:49.505Z,55.94
2023-03-17T12:26:21.204Z,55.36
2023-03-17T12:29:04.111Z,54.44
2023-03-17T12:31:37.813Z,55.08
2023-03-17T12:34:26.019Z,55.01
2023-03-17T12:36:53.860Z,54.90
2023-03-17T12:39:28.188Z,54.17
2023-03-17T12:42:25.273Z,54.75
2023-03-17T12:45:22.846Z,57.18
2023-03-17T12:48:04.716Z,57.63
2023-03-17T12:50:40.862Z,58.05
2023-03-17T12:53:22.819Z,58.81
2023-03-17T12:55:52.575Z,59.36
2023-03-17T12:58:28.309Z,59.03
2023-03-17T13:01:17.441Z,59.66
2023-03-17T13:04:05.128Z,57.74
2023-03-17T13:06:39.471Z,58.74
2023-03-17T13:09:30.294Z,58.43
2023-03-17T13:11:59.741Z,56.87
2023-03-17T13:14:27.146Z,56.53
2023-03-17T13:17:16.871Z,55.87
2023-03-17T13:20:07.893Z,56.99
2023-03-17T13:22:39.816Z,51.32
2023-03-17T13:25:25.242Z,50.57
2023-03-17T13:27:51.888Z,50.77
2023-03-17T13:30:27.643Z,51.46
2023-03-17T13:33:19.806Z,51.76
2023-03-17T13:35:46.696Z,52.21
2023-03-17T13:38:33.034Z,52.39
2023-03-17T13:41:24.968Z,52.64
2023-03-17T13:44:29.285Z,53.52
2023-03-17T13:47:15.962Z,52.38
2023-03-17T13:49:50.709Z,53.27
2023-03-17T13:52:27.471Z,53.86
2023-03-17T13:55:26.359Z,55.30
2023-03-17T13:58:22.511Z,54.78
2023-03-17T14:00:57.908Z,54.96
2023-03-17T14:03:30.502Z,53.91
2023-03-17T14:05:58.799Z,54.08
2023-03-17T14:08:52.059Z,53.19
2023-03-17T14:11:33.025Z,53.21
2023-03-17T14:14:32.243Z,53.07
2023-03-17T14:17:04.121Z,52.64
2023-03-17T14:19:31.191Z,52.29
2023-03-17T14:22:19.950Z,52.52
2023-03-17T14:24:51.765Z,53.19
2023-03-17T14:27:18.838Z,53.83
2023-03-17T14:29:46.071Z,54.00
2023-03-17T14:32:15.946Z,54.13
2023-03-17T14:34:44.707Z,53.76
2023-03-17T14:37:12.554Z,53.44
2023-03-17T14:39:48.723Z,54.27
2023-03-17T14:42:19.674Z,53.42
2023-03-17T14:44:46.511Z,53.69
2023-03-17T14:47:20.489Z,52.11
2023-03-17T14:49:47.975Z,52.85
2023-03-17T14:52:20.587Z,52.11
2023-03-17T14:54:52.822Z,51.31
2023-03-17T14:57:32.436Z,50.66
2023-03-17T15:00:16.247Z,51.26
2023-03-17T15:02:58.542Z,50.13
2023-03-17T15:05:30.743Z,50.40
2023-03-17T15:07:57.582Z,51.25
2023-03-17T15:10:31.185Z,51.20
2023-03-17T15:13:02.389Z,50.46
2023-03-17T15:15:33.058Z,50.17
2023-03-17T15:18:04.967Z,50.47
2023-03-17T15:20:35.339Z,50.84
2023-03-17T15:23:15.643Z,51.21
2023-03-17T15:25:44.722Z,51.96
2023-03-17T15:28:18.297Z,52.54
2023-03-17T15:30:48.508Z,52.41
2023-03-17T15:33:36.296Z,52.75
2023-03-17T15:36:03.612Z,53.30
2023-03-17T15:38:30.426Z,53.95
2023-03-17T15:40:57.419Z,54.13
2023-03-17T15:43:24.093Z,54.06
2023-03-17T15:46:01.393Z,54.70
2023-03-17T15:48:31.437Z,55.19
2023-03-17T15:51:00.139Z,55.58
2023-03-17T15:53:27.498Z,55.90
2023-03-17T15:55:54.269Z,56.04
2023-03-17T15:58:21.131Z,56.67
2023-03-17T16:00:52.623Z,57.36
2023-03-17T16:03:29.221Z,57.79
2023-03-17T16:05:56.137Z,58.84
2023-03-17T16:08:23.239Z,58.91
2023-03-17T16:10:49.954Z,59.30
2023-03-17T16:13:16.629Z,59.67
2023-03-17T16:15:50.726Z,60.06
2023-03-17T16:18:19.339Z,60.30
2023-03-17T16:20:54.480Z,60.38
2023-03-17T16:23:31.545Z,60.81
2023-03-17T16:26:11.861Z,60.69
2023-03-17T16:28:41.687Z,61.33
2023-03-17T16:31:24.924Z,61.49
2023-03-17T16:33:53.146Z,61.41
2023-03-17T16:36:21.338Z,60.97
2023-03-17T16:38:49.200Z,61.30
2023-03-17T16:41:19.298Z,61.35
2023-03-17T16:43:51.127Z,61.48
2023-03-17T16:46:19.713Z,61.41
2023-03-17T16:48:48.350Z,61.71
2023-03-17T16:51:15.364Z,61.61
2023-03-17T16:53:42.056Z,62.12
2023-03-17T16:56:18.500Z,62.71
2023-03-17T16:58:46.662Z,62.54
2023-03-17T17:01:26.070Z,62.81
2023-03-17T17:03:53.393Z,62.70
2023-03-17T17:06:22.321Z,62.95
2023-03-17T17:08:50.265Z,63.38
2023-03-17T17:11:18.332Z,63.57
2023-03-17T17:13:46.994Z,64.12
2023-03-17T17:16:22.267Z,64.63
2023-03-17T17:18:49.335Z,64.87
2023-03-17T17:21:16.682Z,65.29
2023-03-17T17:23:43.402Z,65.29
2023-03-17T17:26:10.363Z,65.62
2023-03-17T17:28:39.444Z,65.80
2023-03-17T17:31:08.465Z,66.49
2023-03-17T17:33:36.380Z,66.68
2023-03-17T17:36:05.891Z,67.07
2023-03-17T17:38:32.702Z,67.03
2023-03-17T17:41:03.324Z,67.64
2023-03-17T17:43:29.992Z,67.54
2023-03-17T17:45:56.625Z,67.87
2023-03-17T17:48:26.291Z,68.53
2023-03-17T17:50:54.402Z,68.71
2023-03-17T17:53:21.437Z,68.49
2023-03-17T17:55:49.713Z,68.96
2023-03-17T17:58:19.986Z,69.03
2023-03-17T18:00:46.990Z,69.24
2023-03-17T18:03:13.770Z,69.28
2023-03-17T18:05:40.463Z,69.97
2023-03-17T18:08:07.471Z,70.45
2023-03-17T18:10:34.896Z,70.83
2023-03-17T18:13:01.740Z,71.24
2023-03-17T18:15:29.021Z,71.47
2023-03-17T18:17:56.244Z,71.61
2023-03-17T18:20:24.061Z,72.13
2023-03-17T18:22:51.622Z,72.62
2023-03-17T18:25:19.406Z,72.61
2023-03-17T18:27:47.320Z,73.13
2023-03-17T18:30:21.223Z,73.88
2023-03-17T18:32:49.854Z,74.48
2023-03-17T18:35:19.464Z,75.18
2023-03-17T18:37:46.480Z,75.79
2023-03-17T18:40:17.292Z,76.12
2023-03-17T18:42:46.109Z,76.45
2023-03-17T18:45:13.602Z,77.02
2023-03-17T18:47:41.905Z,77.11
2023-03-17T18:50:11.189Z,76.97
2023-03-17T18:52:41.119Z,77.02
2023-03-17T18:55:09.702Z,77.85
2023-03-17T18:57:36.782Z,78.91
2023-03-17T19:00:05.211Z,80.55
2023-03-17T19:02:31.858Z,81.55
2023-03-17T19:04:58.571Z,82.33
2023-03-17T19:07:25.322Z,83.27
2023-03-17T19:09:52.045Z,84.54
2023-03-17T19:12:18.826Z,85.64
2023-03-17T19:14:45.567Z,86.00
2023-03-17T19:17:12.201Z,86.22
2023-03-17T19:19:40.638Z,86.42
2023-03-17T19:22:07.727Z,87.00
2023-03-17T19:24:36.108Z,86.65
2023-03-17T19:27:02.754Z,87.60
2023-03-17T19:29:29.413Z,88.00
2023-03-17T19:31:56.027Z,88.06
2023-03-17T19:34:23.345Z,88.62
2023-03-17T19:36:51.260Z,88.43
2023-03-17T19:39:18.201Z,89.02
2023-03-17T19:41:44.981Z,88.87
2023-03-17T19:44:11.688Z,89.87
2023-03-17T19:46:38.522Z,90.10
2023-03-17T19:49:05.504Z,90.11
2023-03-17T19:51:33.173Z,90.52
2023-03-17T19:54:00.243Z,90.85
2023-03-17T19:56:27.950Z,91.36
2023-03-17T19:58:55.018Z,91.04
2023-03-17T20:01:22.824Z,91.31
2023-03-17T20:03:49.923Z,91.82
2023-03-17T20:06:16.859Z,91.76
2023-03-17T20:08:44.316Z,92.28
2023-03-17T20:11:12.393Z,92.12
2023-03-17T20:13:39.730Z,93.63
2023-03-17T20:16:07.973Z,93.43
2023-03-17T20:18:35.957Z,93.41
2023-03-17T20:21:05.742Z,93.39
2023-03-17T20:23:33.444Z,93.82
2023-03-17T20:26:00.137Z,93.85
2023-03-17T20:28:29.507Z,94.21
2023-03-17T20:31:00.378Z,93.62
2023-03-17T20:33:27.877Z,93.81
2023-03-17T20:35:54.637Z,92.91
2023-03-17T20:38:21.413Z,93.00
2023-03-17T20:40:48.096Z,92.63
2023-03-17T20:43:15.044Z,93.34
2023-03-17T20:45:41.716Z,93.77
2023-03-17T20:48:10.739Z,94.41
2023-03-17T20:50:38.880Z,95.12
2023-03-17T20:53:05.868Z,95.69
2023-03-17T20:55:32.548Z,95.48
2023-03-17T20:57:59.702Z,95.86
2023-03-17T21:00:26.594Z,95.68
2023-03-17T21:02:53.370Z,96.37
2023-03-17T21:05:25.315Z,96.76
2023-03-17T21:07:52.726Z,96.73
2023-03-17T21:10:20.629Z,96.96
2023-03-17T21:12:48.118Z,98.11
2023-03-17T21:15:15.661Z,98.50
2023-03-17T21:17:43.063Z,97.77
2023-03-17T21:20:12.352Z,98.08
2023-03-17T21:22:40.210Z,98.75
2023-03-17T21:25:08.991Z,99.18
2023-03-17T21:27:37.791Z,98.58
2023-03-17T21:30:12.068Z,98.43
2023-03-17T21:32:40.369Z,98.97
2023-03-17T21:35:08.136Z,98.73
2023-03-17T21:37:35.090Z,98.49
2023-03-17T21:40:02.131Z,99.14
2023-03-17T21:42:29.128Z,98.35
2023-03-17T21:44:55.904Z,99.18
2023-03-17T21:47:22.588Z,99.53
2023-03-17T21:49:49.271Z,99.53
2023-03-17T21:52:16.090Z,99.49
2023-03-17T21:54:42.869Z,100.00
2023-03-17T21:57:11.830Z,100.00
2023-03-17T21:59:38.710Z,100.00
2023-03-17T22:02:05.985Z,100.00
2023-03-17T22:04:32.646Z,100.00
2023-03-17T22:06:59.266Z,100.00
2023-03-17T22:09:26.116Z,100.00
2023-03-17T22:11:52.872Z,100.00
2023-03-17T22:14:20.739Z,100.00
2023-03-17T22:16:50.891Z,100.00
2023-03-17T22:19:20.588Z,100.00
2023-03-17T22:21:48.080Z,100.00
2023-03-17T22:24:14.778Z,100.00
2023-03-17T22:26:42.145Z,100.00
2023-03-17T22:29:08.842Z,100.00
2023-03-17T22:31:36.559Z,100.00
2023-03-17T22:34:04.452Z,99.95
2023-03-17T22:36:31.556Z,99.68
2023-03-17T22:38:59.712Z,100.00
2023-03-17T22:41:29.311Z,100.00
2023-03-17T22:43:57.765Z,100.00
2023-03-17T22:46:25.381Z,100.00
2023-03-17T22:48:52.561Z,100.00
2023-03-17T22:51:23.031Z,100.00
2023-03-17T22:53:51.034Z,100.00
2023-03-17T22:56:18.387Z,100.00
2023-03-17T22:58:46.216Z,100.00
2023-03-17T23:01:15.135Z,100.00
2023-03-17T23:03:42.511Z,100.00
2023-03-17T23:06:09.988Z,100.00
2023-03-17T23:08:38.513Z,100.00
2023-03-17T23:11:08.575Z,100.00
2023-03-17T23:13:36.257Z,100.00
2023-03-17T23:16:04.697Z,100.00
2023-03-17T23:18:31.995Z,100.00
2023-03-17T23:20:59.676Z,100.00
2023-03-17T23:23:26.825Z,100.00
2023-03-17T23:25:53.882Z,100.00
2023-03-17T23:28:20.987Z,100.00
2023-03-17T23:30:47.773Z,100.00
2023-03-17T23:33:15.440Z,100.00
2023-03-17T23:35:42.176Z,100.00
2023-03-17T23:38:09.611Z,100.00
2023-03-17T23:40:36.243Z,100.00
2023-03-17T23:43:05.630Z,100.00
2023-03-17T23:45:34.397Z,100.00
2023-03-17T23:48:01.784Z,100.00
2023-03-17T23:50:28.594Z,100.00
2023-03-17T23:52:55.521Z,100.00
2023-03-17T23:55:23.188Z,100.00
2023-03-17T23:57:50.388Z,100.00
